sensor_id;sensor_type;location;lat;lon;timestamp;pressure;altitude;pressure_sealevel;temperature;humidity
55014;BME280;40916;51.632;5.552;2023-03-03T00:00:26;1019.7939442301342;;;0.5135139060694556;0
55014;BME280;40916;51.632;5.552;2023-03-03T00:01:27;1019.7519647730603;;;0.49075865876519487;0
55014;BME280;40916;51.632;5.552;2023-03-03T00:02:26;1019.723166342037;;;0.49075865876519487;0
55014;BME280;40916;51.632;5.552;2023-03-03T00:03:26;1019.7167619608965;;;0.49834443739216283;0
55014;BME280;40916;51.632;5.552;2023-03-03T00:04:26;1019.7723443135613;;;0.5135139060694556;0
55014;BME280;40916;51.632;5.552;2023-03-03T00:05:26;1019.7427540313366;;;0.5059295197411515;0
55014;BME280;40916;51.632;5.552;2023-03-03T00:06:26;1019.7779596565645;;;0.49834443739216283;0
55014;BME280;40916;51.632;5.552;2023-03-03T00:07:26;1019.7627641865769;;;0.49075865876519487;0
55014;BME280;40916;51.632;5.552;2023-03-03T00:08:26;1019.7915626276427;;;0.49075865876519487;0
55014;BME280;40916;51.632;5.552;2023-03-03T00:09:26;1019.8247579166822;;;0.49834443739216283;0
55014;BME280;40916;51.632;5.552;2023-03-03T00:10:27;1019.8239608825718;;;0.49075865876519487;0
55014;BME280;40916;51.632;5.552;2023-03-03T00:11:27;1019.8079601950205;;;0.47558501164750666;0
55014;BME280;40916;51.632;5.552;2023-03-03T00:12:28;1019.880757179129;;;0.4831721836028251;0
55014;BME280;40916;51.632;5.552;2023-03-03T00:13:28;1019.8691548661819;;;0.47558501164750666;0
55014;BME280;40916;51.632;5.552;2023-03-03T00:14:28;1019.8851576115471;;;0.49075865876519487;0
55014;BME280;40916;51.632;5.552;2023-03-03T00:15:28;1019.8923572288891;;;0.49075865876519487;0
55014;BME280;40916;51.632;5.552;2023-03-03T00:16:28;1020.0243435958981;;;0.5135139060694556;0
55014;BME280;40916;51.632;5.552;2023-03-03T00:17:28;1019.9211557028211;;;0.49075865876519487;0
55014;BME280;40916;51.632;5.552;2023-03-03T00:18:29;1019.9255542347499;;;0.49834443739216283;0
55014;BME280;40916;51.632;5.552;2023-03-03T00:19:28;1019.9263503324484;;;0.5059295197411515;0
55014;BME280;40916;51.632;5.552;2023-03-03T00:20:29;1019.9335501934427;;;0.5059295197411515;0
55014;BME280;40916;51.632;5.552;2023-03-03T00:21:28;1019.93873481088;;;0.5210975966342488;0
55014;BME280;40916;51.632;5.552;2023-03-03T00:22:28;1019.9819354344055;;;0.5210975966342488;0
55014;BME280;40916;51.632;5.552;2023-03-03T00:23:29;1020.0151255882463;;;0.5286805916925701;0
55014;BME280;40916;51.632;5.552;2023-03-03T00:24:30;1019.9215226643864;;;0.5286805916925701;0
55014;BME280;40916;51.632;5.552;2023-03-03T00:25:28;1019.9475093529636;;;0.5362628915013339;0
55014;BME280;40916;51.632;5.552;2023-03-03T00:26:29;1019.9454730175026;;;0.5514254063972253;0
55014;BME280;40916;51.632;5.552;2023-03-03T00:27:29;1019.9310718487022;;;0.5514254063972253;0
55014;BME280;40916;51.632;5.552;2023-03-03T00:28:29;1019.991775677704;;;0.581742104484583;0
55014;BME280;40916;51.632;5.552;2023-03-03T00:29:29;1019.9686288575945;;;0.5665851433747164;0
55014;BME280;40916;51.632;5.552;2023-03-03T00:30:28;1019.9573030041535;;;0.5968962917755825;0
55014;BME280;40916;51.632;5.552;2023-03-03T00:31:31;1019.9933095504626;;;0.5968962917755825;0
55014;BME280;40916;51.632;5.552;2023-03-03T00:32:30;1019.946501042487;;;0.5968962917755825;0
55014;BME280;40916;51.632;5.552;2023-03-03T00:33:29;1019.9624259897655;;;0.6120477072944617;0
55014;BME280;40916;51.632;5.552;2023-03-03T00:34:28;1020.0338586191236;;;0.6423422311927425;0
55014;BME280;40916;51.632;5.552;2023-03-03T00:35:29;1019.9906464165992;;;0.6423422311927425;0
55014;BME280;40916;51.632;5.552;2023-03-03T00:36:30;1020.046155317642;;;0.6574853436555728;0
55014;BME280;40916;51.632;5.552;2023-03-03T00:37:29;1019.9921382564404;;;0.6574853436555728;0
55014;BME280;40916;51.632;5.552;2023-03-03T00:38:29;1020.0462423624422;;;0.6953310384943521;0
55014;BME280;40916;51.632;5.552;2023-03-03T00:39:29;1019.981416479325;;;0.6953310384943521;0
55014;BME280;40916;51.632;5.552;2023-03-03T00:40:30;1019.9828713518473;;;0.7104644872449413;0
55014;BME280;40916;51.632;5.552;2023-03-03T00:41:29;1019.9799932664721;;;0.7180301778112472;0
55014;BME280;40916;51.632;5.552;2023-03-03T00:42:29;1020.0066445705841;;;0.7331594925947584;0
55014;BME280;40916;51.632;5.552;2023-03-03T00:43:32;1019.9850341428207;;;0.7331594925947584;0
55014;BME280;40916;51.632;5.552;2023-03-03T00:44:32;1019.9093976780364;;;0.7331594925947584;0
55014;BME280;40916;51.632;5.552;2023-03-03T00:45:30;1019.9475524402485;;;0.7558483027001763;0
55014;BME280;40916;51.632;5.552;2023-03-03T00:46:29;1019.9151351944259;;;0.7558483027001763;0
55014;BME280;40916;51.632;5.552;2023-03-03T00:47:30;1019.9230458764961;;;0.7634098638632594;0
55014;BME280;40916;51.632;5.552;2023-03-03T00:48:31;1020.0109021291955;;;0.7785309243996998;0
55014;BME280;40916;51.632;5.552;2023-03-03T00:49:30;1019.9388601726747;;;0.7785309243996998;0
55014;BME280;40916;51.632;5.552;2023-03-03T00:50:30;1019.9899896805555;;;0.786090424278747;0
55014;BME280;40916;51.632;5.552;2023-03-03T00:51:30;1020.0296134296059;;;0.786090424278747;0
55014;BME280;40916;51.632;5.552;2023-03-03T00:52:30;1019.964074852258;;;0.7785309243996998;0
55014;BME280;40916;51.632;5.552;2023-03-03T00:53:30;1019.95687065752;;;0.7785309243996998;0
55014;BME280;40916;51.632;5.552;2023-03-03T00:54:30;1019.9863875222364;;;0.786090424278747;0
55014;BME280;40916;51.632;5.552;2023-03-03T00:55:31;1020.0036979314866;;;0.7785309243996998;0
55014;BME280;40916;51.632;5.552;2023-03-03T00:56:30;1019.9511543570223;;;0.7558483027001763;0
55014;BME280;40916;51.632;5.552;2023-03-03T00:57:31;1020.0426173842944;;;0.7709707376787982;0
55014;BME280;40916;51.632;5.552;2023-03-03T00:58:31;1020.1132407300942;;;0.7558483027001763;0
55014;BME280;40916;51.632;5.552;2023-03-03T00:59:31;1020.0368890218864;;;0.7482860539365213;0
55014;BME280;40916;51.632;5.552;2023-03-03T01:00:31;1019.9144417853571;;;0.7104644872449413;0
55014;BME280;40916;51.632;5.552;2023-03-03T01:01:31;1020.0044806972008;;;0.7104644872449413;0
55014;BME280;40916;51.632;5.552;2023-03-03T01:02:31;1020.00015270408;;;0.7028981075572744;0
55014;BME280;40916;51.632;5.552;2023-03-03T01:03:31;1019.9965512064939;;;0.7028981075572744;0
55014;BME280;40916;51.632;5.552;2023-03-03T01:04:31;1020.0253631903817;;;0.7028981075572744;0
55014;BME280;40916;51.632;5.552;2023-03-03T01:05:32;1020.0851251114902;;;0.6877632798021409;0
55014;BME280;40916;51.632;5.552;2023-03-03T01:06:32;1020.0685054203711;;;0.6650558634076731;0
55014;BME280;40916;51.632;5.552;2023-03-03T01:07:32;1020.0482626902859;;;0.6423422311927425;0
55014;BME280;40916;51.632;5.552;2023-03-03T01:08:32;1020.0842728761857;;;0.6423422311927425;0
55014;BME280;40916;51.632;5.552;2023-03-03T01:09:32;1020.1339349139993;;;0.6347696379723331;0
55014;BME280;40916;51.632;5.552;2023-03-03T01:10:33;1020.2080402668379;;;0.6196223762784072;0
55014;BME280;40916;51.632;5.552;2023-03-03T01:11:32;1020.131662522119;;;0.6120477072944617;0
55014;BME280;40916;51.632;5.552;2023-03-03T01:12:32;1020.1453027131652;;;0.604472345878694;0
55014;BME280;40916;51.632;5.552;2023-03-03T01:13:33;1020.0421831754554;;;0.581742104484583;0
55014;BME280;40916;51.632;5.552;2023-03-03T01:14:33;1020.1337351901612;;;0.5968962917755825;0
55014;BME280;40916;51.632;5.552;2023-03-03T01:15:33;1020.1386243692364;;;0.5741639707850084;0
55014;BME280;40916;51.632;5.552;2023-03-03T01:16:33;1020.2597583480007;;;0.5968962917755825;0
55014;BME280;40916;51.632;5.552;2023-03-03T01:17:33;1020.1574003971987;;;0.581742104484583;0
55014;BME280;40916;51.632;5.552;2023-03-03T01:18:33;1020.1630513585288;;;0.5665851433747164;0
55014;BME280;40916;51.632;5.552;2023-03-03T01:19:33;1020.2350597766847;;;0.5665851433747164;0
55014;BME280;40916;51.632;5.552;2023-03-03T01:20:33;1020.2062564039428;;;0.5665851433747164;0
55014;BME280;40916;51.632;5.552;2023-03-03T01:21:33;1020.2834193673389;;;0.581742104484583;0
55014;BME280;40916;51.632;5.552;2023-03-03T01:22:33;1020.2062564039428;;;0.5665851433747164;0
55014;BME280;40916;51.632;5.552;2023-03-03T01:23:34;1020.1882542996892;;;0.5665851433747164;0
55014;BME280;40916;51.632;5.552;2023-03-03T01:24:33;1020.1535060673642;;;0.5438444963173303;0
55014;BME280;40916;51.632;5.552;2023-03-03T01:25:33;1020.1347184530285;;;0.5362628915013339;0
55014;BME280;40916;51.632;5.552;2023-03-03T01:26:34;1020.2422606210118;;;0.5665851433747164;0
55014;BME280;40916;51.632;5.552;2023-03-03T01:27:34;1020.2003091813699;;;0.5438444963173303;0
55014;BME280;40916;51.632;5.552;2023-03-03T01:28:34;1020.2694997983654;;;0.5514254063972253;0
55014;BME280;40916;51.632;5.552;2023-03-03T01:29:34;1020.245533114158;;;0.5286805916925701;0
55014;BME280;40916;51.632;5.552;2023-03-03T01:30:34;1020.2915403839678;;;0.5210975966342488;0
55014;BME280;40916;51.632;5.552;2023-03-03T01:31:34;1020.1831364262874;;;0.4831721836028251;0
55014;BME280;40916;51.632;5.552;2023-03-03T01:32:34;1020.2551316038147;;;0.4831721836028251;0
55014;BME280;40916;51.632;5.552;2023-03-03T01:33:35;1020.2310976856381;;;0.4604085763271861;0
55014;BME280;40916;51.632;5.552;2023-03-03T01:34:35;1020.2890024788005;;;0.4300473328248593;0
55014;BME280;40916;51.632;5.552;2023-03-03T01:35:35;1020.280392437992;;;0.38448450441199356;0
55014;BME280;40916;51.632;5.552;2023-03-03T01:36:35;1020.2321034423516;;;0.33889647048930627;0
55014;BME280;40916;51.632;5.552;2023-03-03T01:37:35;1020.2879577846365;;;0.3236948482683424;0
55014;BME280;40916;51.632;5.552;2023-03-03T01:38:36;1020.2116389837752;;;0.2856784991158392;0
55014;BME280;40916;51.632;5.552;2023-03-03T01:39:35;1020.2449779528807;;;0.2628602493010881;0
55014;BME280;40916;51.632;5.552;2023-03-03T01:40:35;1020.2404937271484;;;0.25525275774292666;0
55014;BME280;40916;51.632;5.552;2023-03-03T01:41:35;1020.179359049145;;;0.22481574310604557;0
55014;BME280;40916;51.632;5.552;2023-03-03T01:42:35;1020.1478753720914;;;0.20198057397404057;0
55014;BME280;40916;51.632;5.552;2023-03-03T01:43:41;1020.2809838052119;;;0.20198057397404057;0
55014;BME280;40916;51.632;5.552;2023-03-03T01:44:35;1020.2134989438823;;;0.17913904713131146;0
55014;BME280;40916;51.632;5.552;2023-03-03T01:45:41;1020.288126806278;;;0.17152379080081204;0
55014;BME280;40916;51.632;5.552;2023-03-03T01:46:40;1020.3708644068881;;;0.17152379080081204;0
55014;BME280;40916;51.632;5.552;2023-03-03T01:47:36;1020.2628524170549;;;0.14105568822147063;0
55014;BME280;40916;51.632;5.552;2023-03-03T01:48:36;1020.2591191405048;;;0.1105762493946223;0
55014;BME280;40916;51.632;5.552;2023-03-03T01:49:37;1020.2689693802533;;;0.1029546164224584;0
55014;BME280;40916;51.632;5.552;2023-03-03T01:50:38;1020.2284630779839;;;0.09533227361631447;0
55014;BME280;40916;51.632;5.552;2023-03-03T01:51:37;1020.3056950430816;;;0.08008545744545614;0
55014;BME280;40916;51.632;5.552;2023-03-03T01:52:37;1020.409995333511;;;0.08008545744545614;0
55014;BME280;40916;51.632;5.552;2023-03-03T01:53:38;1020.29563977583;;;0.05720990282690508;0
55014;BME280;40916;51.632;5.552;2023-03-03T01:54:37;1020.3107345689137;;;0.03432794542120732;0
55014;BME280;40916;51.632;5.552;2023-03-03T01:55:38;1020.321523160114;;;0.03432794542120732;0
55014;BME280;40916;51.632;5.552;2023-03-03T01:56:37;1020.2836239413793;;;0.019069746513263652;0
55014;BME280;40916;51.632;5.552;2023-03-03T01:57:38;1020.2800278665575;;;0.019069746513263652;0
55014;BME280;40916;51.632;5.552;2023-03-03T01:58:38;1020.3107345689137;;;0.03432794542120732;0
55014;BME280;40916;51.632;5.552;2023-03-03T01:59:39;1020.2385245520624;;;0.003808696618808227;0
55014;BME280;40916;51.632;5.552;2023-03-03T02:00:40;1020.3097668559558;;;0.02669920220781208;0
55014;BME280;40916;51.632;5.552;2023-03-03T02:01:37;1020.2620474941566;;;0.019069746513263652;0
55014;BME280;40916;51.632;5.552;2023-03-03T02:02:37;1020.2495992381411;;;0.03432794542120732;0
55014;BME280;40916;51.632;5.552;2023-03-03T02:03:37;1020.3035421753499;;;0.03432794542120732;0
55014;BME280;40916;51.632;5.552;2023-03-03T02:04:38;1020.3071383720749;;;0.03432794542120732;0
55014;BME280;40916;51.632;5.552;2023-03-03T02:05:38;1020.2891573895887;;;0.03432794542120732;0
55014;BME280;40916;51.632;5.552;2023-03-03T02:06:39;1020.2466911656651;;;0.011439578072121037;0
55014;BME280;40916;51.632;5.552;2023-03-03T02:07:38;1020.2924638489413;;;0.003808696618808227;0
55014;BME280;40916;51.632;5.552;2023-03-03T02:08:39;1020.3267768481237;;;0.019069746513263652;0
55014;BME280;40916;51.632;5.552;2023-03-03T02:09:40;1020.3068476657696;;;0.003808696618808227;0
55014;BME280;40916;51.632;5.552;2023-03-03T02:10:38;1020.2878897816204;;;-0.0038228981123751282;0
55014;BME280;40916;51.632;5.552;2023-03-03T02:11:39;1020.2741522373171;;;-0.02672196463220189;0
55014;BME280;40916;51.632;5.552;2023-03-03T02:12:39;1020.3336548237846;;;-0.011455206387271488;0
55014;BME280;40916;51.632;5.552;2023-03-03T02:13:38;1020.337250657925;;;-0.011455206387271488;0
55014;BME280;40916;51.632;5.552;2023-03-03T02:14:39;1020.2653339967515;;;-0.011455206387271488;0
55014;BME280;40916;51.632;5.552;2023-03-03T02:15:39;1020.3264631558454;;;-0.011455206387271488;0
55014;BME280;40916;51.632;5.552;2023-03-03T02:16:39;1020.3195846958608;;;0.019069746513263652;0
55014;BME280;40916;51.632;5.552;2023-03-03T02:17:39;1020.3682737338254;;;0.03432794542120732;0
55014;BME280;40916;51.632;5.552;2023-03-03T02:18:39;1020.2917861759367;;;0.02669920220781208;0
55014;BME280;40916;51.632;5.552;2023-03-03T02:19:41;1020.3395041477252;;;0.03432794542120732;0
55014;BME280;40916;51.632;5.552;2023-03-03T02:20:43;1020.2800278665575;;;0.019069746513263652;0
55014;BME280;40916;51.632;5.552;2023-03-03T02:21:39;1020.3392112602949;;;0.003808696618808227;0
55014;BME280;40916;51.632;5.552;2023-03-03T02:22:40;1020.3480381610294;;;-0.011455206387271488;0
55014;BME280;40916;51.632;5.552;2023-03-03T02:23:41;1020.285925520307;;;-0.019088228471844104;0
55014;BME280;40916;51.632;5.552;2023-03-03T02:24:41;1020.254194313357;;;-0.04199158024531968;0
55014;BME280;40916;51.632;5.552;2023-03-03T02:25:41;1020.3666505364063;;;-0.034356415134570994;0
55014;BME280;40916;51.632;5.552;2023-03-03T02:26:40;1020.3117237535998;;;-0.04199158024531968;0
55014;BME280;40916;51.632;5.552;2023-03-03T02:27:40;1020.295726505236;;;-0.02672196463220189;0
55014;BME280;40916;51.632;5.552;2023-03-03T02:28:40;1020.3244922021704;;;-0.02672196463220189;0
55014;BME280;40916;51.632;5.552;2023-03-03T02:29:40;1020.2705565263959;;;-0.02672196463220189;0
55014;BME280;40916;51.632;5.552;2023-03-03T02:30:40;1020.3408464921793;;;-0.011455206387271488;0
55014;BME280;40916;51.632;5.552;2023-03-03T02:31:40;1020.3300589897581;;;-0.011455206387271488;0
55014;BME280;40916;51.632;5.552;2023-03-03T02:32:41;1020.3012923216448;;;-0.011455206387271488;0
55014;BME280;40916;51.632;5.552;2023-03-03T02:33:41;1020.278080033935;;;0.003808696618808227;0
55014;BME280;40916;51.632;5.552;2023-03-03T02:34:48;1020.3133629923012;;;0.02669920220781208;0
55014;BME280;40916;51.632;5.552;2023-03-03T02:35:41;1020.2917861759367;;;0.02669920220781208;0
55014;BME280;40916;51.632;5.552;2023-03-03T02:36:41;1020.3136216678371;;;0.05720990282690508;0
55014;BME280;40916;51.632;5.552;2023-03-03T02:37:41;1020.3397537678943;;;0.06483579876746148;0
55014;BME280;40916;51.632;5.552;2023-03-03T02:38:42;1020.246246364582;;;0.06483579876746148;0
55014;BME280;40916;51.632;5.552;2023-03-03T02:39:41;1020.2750178650923;;;0.06483579876746148;0
55014;BME280;40916;51.632;5.552;2023-03-03T02:40:42;1020.2426499275308;;;0.06483579876746148;0
55014;BME280;40916;51.632;5.552;2023-03-03T02:41:43;1020.2507960630272;;;0.0724609835520944;0
55014;BME280;40916;51.632;5.552;2023-03-03T02:42:42;1020.2129231092737;;;0.05720990282690508;0
55014;BME280;40916;51.632;5.552;2023-03-03T02:43:44;1020.321976763116;;;0.09533227361631447;0
55014;BME280;40916;51.632;5.552;2023-03-03T02:44:42;1020.3291701267008;;;0.09533227361631447;0
55014;BME280;40916;51.632;5.552;2023-03-03T02:45:43;1020.2680265507568;;;0.09533227361631447;0
55014;BME280;40916;51.632;5.552;2023-03-03T02:46:43;1020.1996896518979;;;0.09533227361631447;0
55014;BME280;40916;51.632;5.552;2023-03-03T02:47:47;1020.283356343282;;;0.1029546164224584;0
55014;BME280;40916;51.632;5.552;2023-03-03T02:48:42;1020.2140763640293;;;0.09533227361631447;0
55014;BME280;40916;51.632;5.552;2023-03-03T02:49:42;1020.2500431523331;;;0.09533227361631447;0
55014;BME280;40916;51.632;5.552;2023-03-03T02:50:43;1020.2536398317898;;;0.09533227361631447;0
55014;BME280;40916;51.632;5.552;2023-03-03T02:51:43;1020.2771031456393;;;0.1105762493946223;0
55014;BME280;40916;51.632;5.552;2023-03-03T02:52:43;1020.2806999470081;;;0.1105762493946223;0
55014;BME280;40916;51.632;5.552;2023-03-03T02:53:43;1020.2924282123851;;;0.1181971727968083;0
55014;BME280;40916;51.632;5.552;2023-03-03T02:54:43;1020.2502003419244;;;0.12581738689287647;0
55014;BME280;40916;51.632;5.552;2023-03-03T02:55:43;1020.230344738214;;;0.1105762493946223;0
55014;BME280;40916;51.632;5.552;2023-03-03T02:56:43;1020.1430835315048;;;0.1029546164224584;0
55014;BME280;40916;51.632;5.552;2023-03-03T02:57:44;1020.2267479384402;;;0.1105762493946223;0
55014;BME280;40916;51.632;5.552;2023-03-03T02:58:43;1020.2519255392485;;;0.1105762493946223;0
55014;BME280;40916;51.632;5.552;2023-03-03T02:59:44;1020.199843452181;;;0.12581738689287647;0
55014;BME280;40916;51.632;5.552;2023-03-03T03:00:44;1020.2178280530972;;;0.12581738689287647;0
55014;BME280;40916;51.632;5.552;2023-03-03T03:01:44;1020.2223562943966;;;0.1334368919465625;0
55014;BME280;40916;51.632;5.552;2023-03-03T03:02:44;1020.1684015904044;;;0.1334368919465625;0
55014;BME280;40916;51.632;5.552;2023-03-03T03:03:44;1020.2556583314678;;;0.14105568822147063;0
55014;BME280;40916;51.632;5.552;2023-03-03T03:04:44;1020.2440410710437;;;0.16390782700759488;0
55014;BME280;40916;51.632;5.552;2023-03-03T03:05:44;1020.1810457291539;;;0.14867377598107012;0
55014;BME280;40916;51.632;5.552;2023-03-03T03:06:45;1020.1208166101812;;;0.15629115548870942;0
55014;BME280;40916;51.632;5.552;2023-03-03T03:07:44;1020.2296521767851;;;0.16390782700759488;0
55014;BME280;40916;51.632;5.552;2023-03-03T03:08:44;1020.2557512398406;;;0.17152379080081204;0
55014;BME280;40916;51.632;5.552;2023-03-03T03:09:45;1020.2269729663122;;;0.17152379080081204;0
55014;BME280;40916;51.632;5.552;2023-03-03T03:10:45;1020.1811228544191;;;0.17913904713131146;0
55014;BME280;40916;51.632;5.552;2023-03-03T03:11:45;1020.2719698803305;;;0.18675359626190868;0
55014;BME280;40916;51.632;5.552;2023-03-03T03:12:45;1020.2889588048772;;;0.14867377598107012;0
55014;BME280;40916;51.632;5.552;2023-03-03T03:13:45;1020.2475351650329;;;0.1334368919465625;0
55014;BME280;40916;51.632;5.552;2023-03-03T03:14:45;1020.2258085021036;;;0.1029546164224584;0
55014;BME280;40916;51.632;5.552;2023-03-03T03:15:45;1020.3183800814949;;;0.09533227361631447;0
55014;BME280;40916;51.632;5.552;2023-03-03T03:16:45;1020.2939540448639;;;0.0724609835520944;0
55014;BME280;40916;51.632;5.552;2023-03-03T03:17:45;1020.3071383720749;;;0.03432794542120732;0
55014;BME280;40916;51.632;5.552;2023-03-03T03:18:45;1020.2963497822415;;;0.03432794542120732;0
55014;BME280;40916;51.632;5.552;2023-03-03T03:19:46;1020.3068476657696;;;0.003808696618808227;0
55014;BME280;40916;51.632;5.552;2023-03-03T03:20:46;1020.4130827108094;;;0.019069746513263652;0
55014;BME280;40916;51.632;5.552;2023-03-03T03:21:46;1020.4157039081812;;;0.011439578072121037;0
55014;BME280;40916;51.632;5.552;2023-03-03T03:22:46;1020.3833397465241;;;0.011439578072121037;0
55014;BME280;40916;51.632;5.552;2023-03-03T03:23:46;1020.4130827108094;;;0.019069746513263652;0
55014;BME280;40916;51.632;5.552;2023-03-03T03:24:46;1020.4415298975287;;;-0.011455206387271488;0
55014;BME280;40916;51.632;5.552;2023-03-03T03:25:46;1020.504277973106;;;-0.02672196463220189;0
55014;BME280;40916;51.632;5.552;2023-03-03T03:26:46;1020.3986169282005;;;-0.06490136589349405;0
55014;BME280;40916;51.632;5.552;2023-03-03T03:27:46;1020.3576177574564;;;-0.10309865904066129;0
55014;BME280;40916;51.632;5.552;2023-03-03T03:28:47;1020.4202906819731;;;-0.11838259350904323;0
55014;BME280;40916;51.632;5.552;2023-03-03T03:29:47;1020.4254306299938;;;-0.13366939816621937;0
55014;BME280;40916;51.632;5.552;2023-03-03T03:30:47;1020.4593172915485;;;-0.14895907515641582;0
55014;BME280;40916;51.632;5.552;2023-03-03T03:31:47;1020.4593172915485;;;-0.14895907515641582;0
55014;BME280;40916;51.632;5.552;2023-03-03T03:32:47;1020.48240688292;;;-0.1642516266259797;0
55014;BME280;40916;51.632;5.552;2023-03-03T03:33:47;1020.4536498814371;;;-0.1642516266259797;0
55014;BME280;40916;51.632;5.552;2023-03-03T03:34:47;1020.460839131125;;;-0.1642516266259797;0
55014;BME280;40916;51.632;5.552;2023-03-03T03:35:47;1020.4084324055859;;;-0.17954705472341814;0
55014;BME280;40916;51.632;5.552;2023-03-03T03:36:47;1020.4232607949874;;;-0.20249559525193206;0
55014;BME280;40916;51.632;5.552;2023-03-03T03:37:47;1020.386865396424;;;-0.17954705472341814;0
55014;BME280;40916;51.632;5.552;2023-03-03T03:38:48;1020.4016948761202;;;-0.20249559525193206;0
55014;BME280;40916;51.632;5.552;2023-03-03T03:39:48;1020.4648984393219;;;-0.18719584817957724;0
55014;BME280;40916;51.632;5.552;2023-03-03T03:40:48;1020.4695389537889;;;-0.17954705472341814;0
55014;BME280;40916;51.632;5.552;2023-03-03T03:41:50;1020.474176892858;;;-0.17189898096185274;0
55014;BME280;40916;51.632;5.552;2023-03-03T03:42:48;1020.440782927009;;;-0.17954705472341814;0
55014;BME280;40916;51.632;5.552;2023-03-03T03:43:48;1020.3796763942803;;;-0.17954705472341814;0
55014;BME280;40916;51.632;5.552;2023-03-03T03:44:48;1020.3724873925918;;;-0.17954705472341814;0
55014;BME280;40916;51.632;5.552;2023-03-03T03:45:48;1020.4305593246364;;;-0.14895907515641582;0
55014;BME280;40916;51.632;5.552;2023-03-03T03:46:48;1020.3935779240692;;;-0.15660499144704687;0
55014;BME280;40916;51.632;5.552;2023-03-03T03:47:49;1020.3971726076621;;;-0.15660499144704687;0
55014;BME280;40916;51.632;5.552;2023-03-03T03:48:49;1020.4233698340464;;;-0.14895907515641582;0
55014;BME280;40916;51.632;5.552;2023-03-03T03:49:49;1020.4151460273335;;;-0.15660499144704687;0
55014;BME280;40916;51.632;5.552;2023-03-03T03:50:49;1020.4100223557049;;;-0.14131387748559376;0
55014;BME280;40916;51.632;5.552;2023-03-03T03:51:49;1020.3920483298494;;;-0.14131387748559376;0
55014;BME280;40916;51.632;5.552;2023-03-03T03:52:49;1020.3966717005554;;;-0.13366939816621937;0
55014;BME280;40916;51.632;5.552;2023-03-03T03:53:49;1020.4408366998607;;;-0.12602563693006985;0
55014;BME280;40916;51.632;5.552;2023-03-03T03:54:49;1020.4059107315242;;;-0.11838259350904323;0
55014;BME280;40916;51.632;5.552;2023-03-03T03:55:49;1020.3971639435675;;;-0.10309865904066129;0
55014;BME280;40916;51.632;5.552;2023-03-03T03:56:49;1020.4495245914678;;;-0.08781759261899325;0
55014;BME280;40916;51.632;5.552;2023-03-03T03:57:49;1020.4181774950486;;;-0.08017813425685105;0
55014;BME280;40916;51.632;5.552;2023-03-03T03:58:49;1020.4675007500791;;;-0.08781759261899325;0
55014;BME280;40916;51.632;5.552;2023-03-03T03:59:50;1020.4171675131383;;;-0.08781759261899325;0
55014;BME280;40916;51.632;5.552;2023-03-03T04:00:50;1020.4325586603602;;;-0.08017813425685105;0
55014;BME280;40916;51.632;5.552;2023-03-03T04:01:50;1020.4299708465547;;;-0.07253939210407268;0
55014;BME280;40916;51.632;5.552;2023-03-03T04:02:50;1020.5238638163909;;;-0.04199158024531968;0
55014;BME280;40916;51.632;5.552;2023-03-03T04:03:50;1020.4715279614427;;;-0.057264055358082544;0
55014;BME280;40916;51.632;5.552;2023-03-03T04:04:50;1020.5094814267289;;;-0.04199158024531968;0
55014;BME280;40916;51.632;5.552;2023-03-03T04:05:51;1020.5022902325811;;;-0.04199158024531968;0
55014;BME280;40916;51.632;5.552;2023-03-03T04:06:50;1020.5333930211461;;;0.003808696618808227;0
55014;BME280;40916;51.632;5.552;2023-03-03T04:07:50;1020.5232467179338;;;-0.019088228471844104;0
55014;BME280;40916;51.632;5.552;2023-03-03T04:08:51;1020.5729486057332;;;0.003808696618808227;0
55014;BME280;40916;51.632;5.552;2023-03-03T04:09:51;1020.5118172535425;;;0.003808696618808227;0
55014;BME280;40916;51.632;5.552;2023-03-03T04:10:51;1020.5245612138629;;;0.019069746513263652;0
55014;BME280;40916;51.632;5.552;2023-03-03T04:11:51;1020.5787898248997;;;0.04958329546564144;0